createdAt,value
2019-02-26T00:02:23.767Z,5.85
2019-02-26T00:04:52.126Z,5.85
2019-02-26T00:07:25.147Z,4.65
2019-02-26T00:09:55.097Z,6.42
2019-02-26T00:12:22.253Z,6.42
2019-02-26T00:14:50.082Z,6.95
2019-02-26T00:17:21.764Z,6.05
2019-02-26T00:19:48.131Z,6.20
2019-02-26T00:22:15.967Z,6.60
2019-02-26T00:24:44.302Z,6.42
2019-02-26T00:27:10.478Z,6.80
2019-02-26T00:29:36.706Z,6.15
2019-02-26T00:32:04.487Z,6.08
2019-02-26T00:34:32.351Z,6.33
2019-02-26T00:36:59.904Z,6.42
2019-02-26T00:39:29.067Z,6.33
2019-02-26T00:41:55.879Z,6.55
2019-02-26T00:44:25.225Z,6.37
2019-02-26T00:46:53.583Z,6.40
2019-02-26T00:49:21.533Z,6.72
2019-02-26T00:54:22.192Z,6.17
2019-02-26T00:56:47.349Z,5.72
2019-02-26T00:59:16.771Z,6.10
2019-02-26T01:01:46.039Z,5.67
2019-02-26T01:04:10.946Z,6.15
2019-02-26T01:06:40.605Z,5.85
2019-02-26T01:09:10.699Z,5.53
2019-02-26T01:11:37.059Z,5.67
2019-02-26T01:14:05.531Z,6.20
2019-02-26T01:16:31.764Z,6.20
2019-02-26T01:18:58.332Z,5.70
2019-02-26T01:21:29.134Z,5.62
2019-02-26T01:23:56.709Z,5.80
2019-02-26T01:26:27.306Z,5.92
2019-02-26T01:28:53.747Z,5.55
2019-02-26T01:31:22.288Z,6.25
2019-02-26T01:33:49.083Z,7.17
2019-02-26T01:36:18.632Z,5.92
2019-02-26T01:38:46.370Z,6.22
2019-02-26T01:41:17.856Z,5.78
2019-02-26T01:43:43.835Z,6.45
2019-02-26T01:46:11.708Z,5.67
2019-02-26T01:48:39.530Z,6.40
2019-02-26T01:51:06.772Z,6.50
2019-02-26T01:53:33.143Z,6.62
2019-02-26T01:56:04.625Z,6.12
2019-02-26T01:58:28.621Z,6.20
2019-02-26T02:00:55.474Z,6.53
2019-02-26T02:03:23.105Z,6.45
2019-02-26T02:05:52.461Z,6.37
2019-02-26T02:08:22.064Z,6.35
2019-02-26T02:10:56.268Z,6.10
2019-02-26T02:13:28.338Z,6.67
2019-02-26T02:15:55.180Z,6.25
2019-02-26T02:18:23.071Z,6.47
2019-02-26T02:20:50.592Z,5.92
2019-02-26T02:23:19.404Z,6.55
2019-02-26T02:25:45.733Z,6.10
2019-02-26T02:28:11.919Z,6.15
2019-02-26T02:30:39.022Z,6.92
2019-02-26T02:33:05.393Z,6.22
2019-02-26T02:35:32.314Z,6.12
2019-02-26T02:38:00.119Z,5.85
2019-02-26T02:40:27.072Z,5.95
2019-02-26T02:42:53.242Z,5.70
2019-02-26T02:45:20.958Z,6.03
2019-02-26T02:47:54.755Z,6.50
2019-02-26T02:50:18.474Z,6.28
2019-02-26T02:52:44.978Z,6.20
2019-02-26T02:55:13.835Z,6.08
2019-02-26T02:57:41.047Z,6.05
2019-02-26T03:00:12.581Z,6.30
2019-02-26T03:02:42.860Z,6.03
2019-02-26T03:05:09.619Z,6.28
2019-02-26T03:07:36.077Z,6.12
2019-02-26T03:10:06.666Z,5.95
2019-02-26T03:12:35.409Z,5.05
2019-02-26T03:15:08.076Z,6.17
2019-02-26T03:17:38.371Z,5.80
2019-02-26T03:20:10.029Z,5.75
2019-02-26T03:22:41.548Z,6.80
2019-02-26T03:25:20.517Z,5.78
2019-02-26T03:27:51.251Z,5.95
2019-02-26T03:30:26.319Z,5.37
2019-02-26T03:32:50.557Z,5.75
2019-02-26T03:35:23.047Z,5.60
2019-02-26T03:37:49.637Z,6.30
2019-02-26T03:40:16.832Z,6.30
2019-02-26T03:42:46.548Z,5.50
2019-02-26T03:45:15.095Z,6.17
2019-02-26T03:47:41.307Z,5.45
2019-02-26T03:50:12.232Z,5.72
2019-02-26T03:52:40.321Z,5.50
2019-02-26T03:55:09.569Z,5.78
2019-02-26T03:57:40.945Z,4.85
2019-02-26T04:00:16.722Z,5.55
2019-02-26T04:02:45.698Z,5.62
2019-02-26T04:05:13.145Z,6.30
2019-02-26T04:07:39.526Z,5.75
2019-02-26T04:10:07.372Z,5.60
2019-02-26T04:12:39.253Z,5.65
2019-02-26T04:15:05.457Z,5.78
2019-02-26T04:17:33.657Z,5.47
2019-02-26T04:19:59.626Z,5.50
2019-02-26T04:22:26.956Z,5.55
2019-02-26T04:25:00.666Z,5.20
2019-02-26T04:30:34.053Z,5.42
2019-02-26T04:33:20.186Z,5.95
2019-02-26T04:36:05.012Z,5.72
2019-02-26T04:39:13.676Z,6.33
2019-02-26T04:42:00.595Z,5.37
2019-02-26T04:44:52.915Z,5.40
2019-02-26T04:47:24.956Z,5.10
2019-02-26T04:49:51.801Z,5.87
2019-02-26T04:52:21.460Z,5.47
2019-02-26T04:54:47.561Z,5.20
2019-02-26T04:57:13.855Z,5.87
2019-02-26T04:59:43.209Z,5.65
2019-02-26T05:02:12.211Z,5.40
2019-02-26T05:04:42.104Z,4.95
2019-02-26T05:07:12.745Z,5.67
2019-02-26T05:09:37.194Z,5.30
2019-02-26T05:12:03.394Z,5.25
2019-02-26T05:14:29.748Z,5.70
2019-02-26T05:16:57.084Z,5.65
2019-02-26T05:19:24.446Z,5.33
2019-02-26T05:21:50.802Z,5.28
2019-02-26T05:24:18.088Z,6.03
2019-02-26T05:26:45.781Z,5.05
2019-02-26T05:29:15.281Z,5.15
2019-02-26T05:31:43.273Z,5.10
2019-02-26T05:34:09.449Z,5.33
2019-02-26T05:36:42.048Z,5.40
2019-02-26T05:39:07.705Z,4.75
2019-02-26T05:41:34.951Z,5.47
2019-02-26T05:44:04.166Z,5.67
2019-02-26T05:46:29.640Z,4.78
2019-02-26T05:48:58.204Z,5.12
2019-02-26T05:51:27.218Z,5.12
2019-02-26T05:53:52.664Z,5.45
2019-02-26T05:56:20.690Z,5.62
2019-02-26T05:58:50.543Z,5.08
2019-02-26T06:01:19.249Z,5.20
2019-02-26T06:03:46.738Z,4.72
2019-02-26T06:06:13.205Z,5.58
2019-02-26T06:08:41.252Z,5.58
2019-02-26T06:11:07.535Z,4.72
2019-02-26T06:13:38.247Z,5.55
2019-02-26T06:16:07.600Z,4.72
2019-02-26T06:18:33.908Z,5.10
2019-02-26T06:21:01.304Z,4.65
2019-02-26T06:23:28.793Z,5.30
2019-02-26T06:25:59.036Z,4.95
2019-02-26T06:28:24.986Z,4.50
2019-02-26T06:30:51.100Z,5.00
2019-02-26T06:33:17.331Z,5.25
2019-02-26T06:35:44.446Z,5.53
2019-02-26T06:38:11.654Z,5.15
2019-02-26T06:40:39.333Z,4.80
2019-02-26T06:43:05.943Z,5.05
2019-02-26T06:45:32.122Z,5.47
2019-02-26T06:47:59.733Z,4.47
2019-02-26T06:50:25.955Z,5.12
2019-02-26T06:52:54.203Z,5.37
2019-02-26T06:55:20.508Z,5.55
2019-02-26T06:57:49.690Z,5.00
2019-02-26T07:00:18.703Z,5.78
2019-02-26T07:02:46.150Z,5.28
2019-02-26T07:05:13.365Z,4.70
2019-02-26T07:07:39.646Z,4.80
2019-02-26T07:10:09.367Z,5.12
2019-02-26T07:12:35.542Z,4.90
2019-02-26T07:15:01.988Z,5.12
2019-02-26T07:17:31.610Z,5.33
2019-02-26T07:20:00.404Z,5.25
2019-02-26T07:22:27.340Z,4.97
2019-02-26T07:24:53.948Z,4.90
2019-02-26T07:27:24.132Z,4.97
2019-02-26T07:29:52.364Z,4.22
2019-02-26T07:32:20.186Z,5.47
2019-02-26T07:34:49.330Z,5.08
2019-02-26T07:37:15.786Z,5.10
2019-02-26T07:39:44.170Z,5.22
2019-02-26T07:42:11.605Z,5.50
2019-02-26T07:44:38.280Z,5.10
2019-02-26T07:47:06.704Z,5.55
2019-02-26T07:49:34.563Z,5.22
2019-02-26T07:52:03.244Z,5.72
2019-02-26T07:54:29.115Z,5.47
2019-02-26T07:56:57.520Z,5.50
2019-02-26T07:59:32.361Z,5.40
2019-02-26T08:04:23.912Z,5.15
2019-02-26T08:06:52.347Z,4.85
2019-02-26T08:09:21.312Z,5.28
2019-02-26T08:11:49.004Z,4.90
2019-02-26T08:14:16.097Z,5.55
2019-02-26T08:16:43.443Z,5.33
2019-02-26T08:19:10.590Z,5.40
2019-02-26T08:21:39.122Z,5.28
2019-02-26T08:24:05.294Z,5.35
2019-02-26T08:26:31.471Z,5.30
2019-02-26T08:28:57.556Z,5.10
2019-02-26T08:31:25.543Z,5.83
2019-02-26T08:33:51.928Z,5.50
2019-02-26T08:36:19.074Z,5.35
2019-02-26T08:38:45.256Z,5.20
2019-02-26T08:41:11.357Z,5.87
2019-02-26T08:43:37.546Z,6.00
2019-02-26T08:46:03.892Z,5.70
2019-02-26T08:48:30.163Z,6.80
2019-02-26T08:51:00.618Z,6.20
2019-02-26T08:53:26.490Z,6.25
2019-02-26T08:55:53.708Z,6.83
2019-02-26T08:58:20.690Z,6.50
2019-02-26T09:00:47.036Z,6.25
2019-02-26T09:03:15.580Z,6.20
2019-02-26T09:05:42.742Z,6.37
2019-02-26T09:08:12.847Z,7.05
2019-02-26T09:10:41.326Z,6.95
2019-02-26T09:13:09.322Z,6.77
2019-02-26T09:15:39.047Z,7.00
2019-02-26T09:18:05.274Z,6.67
2019-02-26T09:20:31.463Z,7.25
2019-02-26T09:22:59.682Z,9.00
2019-02-26T09:25:28.568Z,7.97
2019-02-26T09:27:53.887Z,7.35
2019-02-26T09:30:20.083Z,7.42
2019-02-26T09:32:46.286Z,7.97
2019-02-26T09:35:16.289Z,8.48
2019-02-26T09:37:44.849Z,7.33
2019-02-26T09:40:17.193Z,7.92
2019-02-26T09:42:47.185Z,7.45
2019-02-26T09:45:20.409Z,8.68
2019-02-26T09:47:47.892Z,8.33
2019-02-26T09:50:15.290Z,8.35
2019-02-26T09:52:45.132Z,9.03
2019-02-26T09:55:14.054Z,8.60
2019-02-26T09:57:40.189Z,10.78
2019-02-26T10:00:14.591Z,10.10
2019-02-26T10:02:42.568Z,11.53
2019-02-26T10:05:11.764Z,12.33
2019-02-26T10:07:38.766Z,11.68
2019-02-26T10:10:16.770Z,13.72
2019-02-26T10:12:42.897Z,12.85
2019-02-26T10:15:11.418Z,12.23
2019-02-26T10:17:40.190Z,13.22
2019-02-26T10:20:10.155Z,12.00
2019-02-26T10:22:38.515Z,12.75
2019-02-26T10:25:06.932Z,12.37
2019-02-26T10:27:35.770Z,13.15
2019-02-26T10:30:02.823Z,13.22
2019-02-26T10:32:29.757Z,13.93
2019-02-26T10:34:56.036Z,14.18
2019-02-26T10:37:23.637Z,14.13
2019-02-26T10:39:52.075Z,12.90
2019-02-26T10:42:18.560Z,15.80
2019-02-26T10:44:44.899Z,11.22
2019-02-26T10:47:11.218Z,11.43
2019-02-26T10:49:37.423Z,11.20
2019-02-26T10:52:03.573Z,10.60
2019-02-26T10:54:37.515Z,11.45
2019-02-26T10:57:03.552Z,10.80
2019-02-26T10:59:28.831Z,11.38
2019-02-26T11:01:57.599Z,12.13
2019-02-26T11:04:23.251Z,11.35
2019-02-26T11:06:49.522Z,11.20
2019-02-26T11:09:22.250Z,11.48
2019-02-26T11:11:47.151Z,11.60
2019-02-26T11:14:16.419Z,11.80
2019-02-26T11:16:41.547Z,11.88
2019-02-26T11:19:12.359Z,11.45
2019-02-26T11:21:38.701Z,11.40
2019-02-26T11:24:06.104Z,10.90
2019-02-26T11:26:35.191Z,11.10
2019-02-26T11:29:01.382Z,11.50
2019-02-26T11:31:27.638Z,10.50
2019-02-26T11:33:56.400Z,10.43
2019-02-26T11:36:21.957Z,10.55
2019-02-26T11:38:48.251Z,10.25
2019-02-26T11:41:14.562Z,10.78
2019-02-26T11:43:41.097Z,10.85
2019-02-26T11:46:08.749Z,11.25
2019-02-26T11:48:38.628Z,10.82
2019-02-26T11:51:05.087Z,10.13
2019-02-26T11:53:31.763Z,9.60
2019-02-26T11:56:00.024Z,10.15
2019-02-26T11:58:40.494Z,10.03
2019-02-26T12:01:04.999Z,9.98
2019-02-26T12:03:34.128Z,10.03
2019-02-26T12:06:01.996Z,10.65
2019-02-26T12:08:30.409Z,10.00
2019-02-26T12:11:01.174Z,10.15
2019-02-26T12:13:27.466Z,9.93
2019-02-26T12:18:23.167Z,9.75
2019-02-26T12:20:49.602Z,10.28
2019-02-26T12:23:16.880Z,11.38
2019-02-26T12:25:44.426Z,11.48
2019-02-26T12:28:13.722Z,9.98
2019-02-26T12:30:43.742Z,8.23
2019-02-26T12:33:14.695Z,7.28
2019-02-26T12:35:43.515Z,8.00
2019-02-26T12:38:18.322Z,7.30
2019-02-26T12:40:41.142Z,8.50
2019-02-26T12:43:08.453Z,8.30
2019-02-26T12:45:40.814Z,8.13
2019-02-26T12:48:10.308Z,8.68
2019-02-26T12:50:37.429Z,8.98
2019-02-26T12:53:04.645Z,9.05
2019-02-26T12:55:32.839Z,9.30
2019-02-26T12:58:01.800Z,8.55
2019-02-26T13:00:28.053Z,9.68
2019-02-26T13:02:54.271Z,9.80
2019-02-26T13:05:22.948Z,9.38
2019-02-26T13:07:48.832Z,9.43
2019-02-26T13:10:20.642Z,9.88
2019-02-26T13:12:52.984Z,9.60
2019-02-26T13:15:19.320Z,8.85
2019-02-26T13:17:48.860Z,9.23
2019-02-26T13:20:23.542Z,9.93
2019-02-26T13:22:50.124Z,9.38
2019-02-26T13:25:17.758Z,9.28
2019-02-26T13:27:49.102Z,9.05
2019-02-26T13:30:26.209Z,9.78
2019-02-26T13:33:00.506Z,8.90
2019-02-26T13:35:23.906Z,8.50
2019-02-26T13:37:53.640Z,8.48
2019-02-26T13:40:21.533Z,7.80
2019-02-26T13:45:20.812Z,34.48
2019-02-26T13:47:47.385Z,14.40
2019-02-26T13:50:27.474Z,8.05
2019-02-26T13:52:57.692Z,9.25
2019-02-26T13:55:23.906Z,27.37
2019-02-26T13:57:50.450Z,40.23
2019-02-26T14:00:25.957Z,26.02
2019-02-26T14:02:46.343Z,13.25
2019-02-26T14:05:15.667Z,19.40
2019-02-26T14:07:44.212Z,37.23
2019-02-26T14:10:16.996Z,48.68
2019-02-26T14:12:43.557Z,80.40
2019-02-26T14:15:16.650Z,55.52
2019-02-26T14:17:42.902Z,58.68
2019-02-26T14:20:11.019Z,34.48
2019-02-26T14:22:37.581Z,53.95
2019-02-26T14:25:05.103Z,16.82
2019-02-26T14:27:31.418Z,10.13
2019-02-26T14:29:58.839Z,7.85
2019-02-26T14:32:25.278Z,12.73
2019-02-26T14:34:52.193Z,9.05
2019-02-26T14:37:18.616Z,8.78
2019-02-26T14:39:44.774Z,9.88
2019-02-26T14:42:10.935Z,8.93
2019-02-26T14:44:37.086Z,7.30
2019-02-26T14:47:05.445Z,6.85
2019-02-26T14:49:31.552Z,7.53
2019-02-26T14:51:57.840Z,7.53
2019-02-26T14:54:24.070Z,7.35
2019-02-26T14:56:51.206Z,6.47
2019-02-26T14:59:17.578Z,8.15
2019-02-26T15:01:43.797Z,7.15
2019-02-26T15:04:10.065Z,7.22
2019-02-26T15:06:36.296Z,6.85
2019-02-26T15:09:06.551Z,6.75
2019-02-26T15:11:33.416Z,8.30
2019-02-26T15:14:00.990Z,6.92
2019-02-26T15:16:27.335Z,31.73
2019-02-26T15:18:57.884Z,8.18
2019-02-26T15:21:24.069Z,7.95
2019-02-26T15:23:50.458Z,7.40
2019-02-26T15:26:17.294Z,10.75
2019-02-26T15:28:43.572Z,7.30
2019-02-26T15:31:11.275Z,7.85
2019-02-26T15:33:37.942Z,7.50
2019-02-26T15:36:06.965Z,8.75
2019-02-26T15:38:33.365Z,7.03
2019-02-26T15:40:59.940Z,11.20
2019-02-26T15:43:26.132Z,7.65
2019-02-26T15:45:53.139Z,7.35
2019-02-26T15:48:19.280Z,7.70
2019-02-26T15:50:45.756Z,9.13
2019-02-26T15:53:12.601Z,8.15
2019-02-26T15:55:38.879Z,8.73
2019-02-26T15:58:06.784Z,8.60
2019-02-26T16:00:37.768Z,11.88
2019-02-26T16:03:02.513Z,14.47
2019-02-26T16:05:35.824Z,15.35
2019-02-26T16:08:02.649Z,13.78
2019-02-26T16:10:28.854Z,11.08
2019-02-26T16:12:57.274Z,11.83
2019-02-26T16:15:23.503Z,12.13
2019-02-26T16:17:49.719Z,11.00
2019-02-26T16:20:18.564Z,14.47
2019-02-26T16:22:44.972Z,10.10
2019-02-26T16:25:11.294Z,8.48
2019-02-26T16:27:38.592Z,9.13
2019-02-26T16:30:18.016Z,9.23
2019-02-26T16:32:44.356Z,9.98
2019-02-26T16:35:10.747Z,9.20
2019-02-26T16:37:38.779Z,7.90
2019-02-26T16:40:08.524Z,7.97
2019-02-26T16:42:35.738Z,7.40
2019-02-26T16:45:02.952Z,7.40
2019-02-26T16:47:30.947Z,7.35
2019-02-26T16:49:58.634Z,7.35
2019-02-26T16:52:27.459Z,7.80
2019-02-26T16:54:53.747Z,7.85
2019-02-26T16:57:20.992Z,7.83
2019-02-26T16:59:47.412Z,7.10
2019-02-26T17:02:14.125Z,7.40
2019-02-26T17:04:40.813Z,7.70
2019-02-26T17:07:07.617Z,7.60
2019-02-26T17:09:34.008Z,7.25
2019-02-26T17:12:00.373Z,7.00
2019-02-26T17:14:26.629Z,7.87
2019-02-26T17:16:53.452Z,8.65
2019-02-26T17:19:19.710Z,8.13
2019-02-26T17:21:45.866Z,8.00
2019-02-26T17:24:12.075Z,7.90
2019-02-26T17:26:38.502Z,8.35
2019-02-26T17:29:04.758Z,8.88
2019-02-26T17:31:31.314Z,8.63
2019-02-26T17:33:57.641Z,9.85
2019-02-26T17:36:23.851Z,9.10
2019-02-26T17:38:51.786Z,8.88
2019-02-26T17:41:18.300Z,11.80
2019-02-26T17:43:44.795Z,10.38
2019-02-26T17:46:11.169Z,8.45
2019-02-26T17:48:43.443Z,7.95
2019-02-26T17:51:05.807Z,9.28
2019-02-26T17:53:31.987Z,9.03
2019-02-26T17:55:58.334Z,8.98
2019-02-26T17:58:25.479Z,8.95
2019-02-26T18:00:53.695Z,9.08
2019-02-26T18:03:19.931Z,9.68
2019-02-26T18:05:51.385Z,11.03
2019-02-26T18:08:18.740Z,8.45
2019-02-26T18:10:42.183Z,8.85
2019-02-26T18:13:08.400Z,8.35
2019-02-26T18:15:34.518Z,8.10
2019-02-26T18:18:00.840Z,8.68
2019-02-26T18:20:28.731Z,8.40
2019-02-26T18:22:55.151Z,12.90
2019-02-26T18:25:22.493Z,9.60
2019-02-26T18:27:49.041Z,9.73
2019-02-26T18:30:22.749Z,7.65
2019-02-26T18:32:50.476Z,9.05
2019-02-26T18:35:17.402Z,10.20
2019-02-26T18:37:46.313Z,8.83
2019-02-26T18:40:14.180Z,8.03
2019-02-26T18:42:41.440Z,8.45
2019-02-26T18:45:13.427Z,8.00
2019-02-26T18:47:42.253Z,9.13
2019-02-26T18:50:07.889Z,8.45
2019-02-26T18:52:34.409Z,9.15
2019-02-26T18:55:00.625Z,8.35
2019-02-26T18:57:26.854Z,8.98
2019-02-26T18:59:53.588Z,7.70
2019-02-26T19:02:20.409Z,9.15
2019-02-26T19:04:48.762Z,8.83
2019-02-26T19:07:16.503Z,8.85
2019-02-26T19:09:44.972Z,8.65
2019-02-26T19:12:10.862Z,8.53
2019-02-26T19:14:41.883Z,8.43
2019-02-26T19:17:05.287Z,8.73
2019-02-26T19:19:31.612Z,9.03
2019-02-26T19:21:58.993Z,8.53
2019-02-26T19:24:25.473Z,9.33
2019-02-26T19:26:51.634Z,9.13
2019-02-26T19:29:17.897Z,10.10
2019-02-26T19:31:44.383Z,9.83
2019-02-26T19:34:10.681Z,9.55
2019-02-26T19:36:36.865Z,10.18
2019-02-26T19:39:04.716Z,9.50
2019-02-26T19:41:32.701Z,9.25
2019-02-26T19:44:00.034Z,9.60
2019-02-26T19:46:27.517Z,10.08
2019-02-26T19:48:54.162Z,9.30
2019-02-26T19:51:22.899Z,8.78
2019-02-26T19:53:48.752Z,8.70
2019-02-26T19:56:14.954Z,9.68
2019-02-26T19:58:41.525Z,8.75
2019-02-26T20:01:07.966Z,9.18
2019-02-26T20:03:39.963Z,9.10
2019-02-26T20:06:03.172Z,9.75
2019-02-26T20:08:29.313Z,9.43
2019-02-26T20:10:55.523Z,10.25
2019-02-26T20:13:21.663Z,10.13
2019-02-26T20:15:47.951Z,10.38
2019-02-26T20:18:20.709Z,9.55
2019-02-26T20:20:45.650Z,10.05
2019-02-26T20:23:10.529Z,10.23
2019-02-26T20:25:36.715Z,10.68
2019-02-26T20:28:05.550Z,10.50
2019-02-26T20:30:30.943Z,10.10
2019-02-26T20:32:57.287Z,9.60
2019-02-26T20:35:24.561Z,10.78
2019-02-26T20:37:50.764Z,10.58
2019-02-26T20:40:23.737Z,10.23
2019-02-26T20:42:50.116Z,10.50
2019-02-26T20:45:18.111Z,11.22
2019-02-26T20:47:46.372Z,11.05
2019-02-26T20:50:12.907Z,11.50
2019-02-26T20:52:39.271Z,10.68
2019-02-26T20:55:08.643Z,11.40
2019-02-26T20:57:37.723Z,12.07
2019-02-26T21:00:06.593Z,10.80
2019-02-26T21:02:34.646Z,10.80
2019-02-26T21:05:00.872Z,10.95
2019-02-26T21:07:27.046Z,10.88
2019-02-26T21:09:53.213Z,11.25
2019-02-26T21:12:19.634Z,11.08
2019-02-26T21:14:46.910Z,10.45
2019-02-26T21:17:14.019Z,11.65
2019-02-26T21:19:40.211Z,11.00
2019-02-26T21:22:06.321Z,10.55
2019-02-26T21:24:34.642Z,11.53
2019-02-26T21:27:00.714Z,10.40
2019-02-26T21:29:27.913Z,10.25
2019-02-26T21:31:54.095Z,9.28
2019-02-26T21:34:20.684Z,9.10
2019-02-26T21:36:46.879Z,9.40
2019-02-26T21:39:13.096Z,10.88
2019-02-26T21:41:40.122Z,10.90
2019-02-26T21:44:08.731Z,11.80
2019-02-26T21:46:36.206Z,10.93
2019-02-26T21:49:02.668Z,11.93
2019-02-26T21:51:28.899Z,12.25
2019-02-26T21:53:55.228Z,11.78
2019-02-26T21:56:21.553Z,11.80
2019-02-26T21:58:48.963Z,11.83
2019-02-26T22:01:15.057Z,12.45
2019-02-26T22:03:41.251Z,11.85
2019-02-26T22:06:10.761Z,11.65
2019-02-26T22:08:35.518Z,12.03
2019-02-26T22:11:01.667Z,12.20
2019-02-26T22:13:29.388Z,11.85
2019-02-26T22:15:56.141Z,11.68
2019-02-26T22:18:22.397Z,12.10
2019-02-26T22:20:49.525Z,11.05
2019-02-26T22:23:15.892Z,11.12
2019-02-26T22:25:42.266Z,11.33
2019-02-26T22:28:09.301Z,11.70
2019-02-26T22:30:35.495Z,11.90
2019-02-26T22:33:02.195Z,11.25
2019-02-26T22:35:28.695Z,12.20
2019-02-26T22:37:54.884Z,12.37
2019-02-26T22:40:22.739Z,11.88
2019-02-26T22:42:49.104Z,11.48
2019-02-26T22:45:15.315Z,11.50
2019-02-26T22:47:43.934Z,11.43
2019-02-26T22:50:16.271Z,12.50
2019-02-26T22:52:42.875Z,12.45
2019-02-26T22:55:15.987Z,12.37
2019-02-26T22:57:40.187Z,11.55
2019-02-26T23:00:29.979Z,12.03
2019-02-26T23:02:58.323Z,12.15
2019-02-26T23:05:25.597Z,11.38
2019-02-26T23:07:52.567Z,11.85
2019-02-26T23:10:18.844Z,12.45
2019-02-26T23:12:45.228Z,12.40
2019-02-26T23:15:11.967Z,12.20
2019-02-26T23:17:38.959Z,11.48
2019-02-26T23:20:07.572Z,12.07
2019-02-26T23:22:33.846Z,12.50
2019-02-26T23:25:00.990Z,12.23
2019-02-26T23:27:30.178Z,11.28
2019-02-26T23:29:56.427Z,11.45
2019-02-26T23:32:23.328Z,11.90
2019-02-26T23:35:05.547Z,10.23
2019-02-26T23:37:35.287Z,10.90
2019-02-26T23:40:02.951Z,11.35
2019-02-26T23:42:31.196Z,11.90
2019-02-26T23:44:57.373Z,10.70
2019-02-26T23:47:23.451Z,11.08
2019-02-26T23:49:49.943Z,9.63
2019-02-26T23:52:16.021Z,10.68
2019-02-26T23:54:42.670Z,9.60
2019-02-26T23:57:08.761Z,10.63
2019-02-26T23:59:37.719Z,10.38
